createdAt,value
2019-02-19T00:01:39.096Z,5.60
2019-02-19T00:04:13.818Z,5.60
2019-02-19T00:06:51.775Z,5.60
2019-02-19T00:09:31.621Z,5.60
2019-02-19T00:12:11.784Z,5.50
2019-02-19T00:14:47.837Z,5.50
2019-02-19T00:17:22.795Z,5.50
2019-02-19T00:19:57.184Z,5.50
2019-02-19T00:22:35.427Z,5.40
2019-02-19T00:25:12.717Z,5.40
2019-02-19T00:27:52.055Z,5.40
2019-02-19T00:30:28.259Z,5.30
2019-02-19T00:33:08.495Z,5.30
2019-02-19T00:35:43.800Z,5.20
2019-02-19T00:38:24.141Z,5.20
2019-02-19T00:41:02.990Z,5.10
2019-02-19T00:43:37.414Z,5.10
2019-02-19T00:46:15.831Z,5.10
2019-02-19T00:48:52.025Z,5.00
2019-02-19T00:51:31.061Z,5.00
2019-02-19T00:54:07.562Z,5.00
2019-02-19T00:56:41.819Z,5.00
2019-02-19T00:59:20.968Z,4.90
2019-02-19T01:01:59.849Z,4.90
2019-02-19T01:04:38.284Z,4.80
2019-02-19T01:07:21.008Z,4.80
2019-02-19T01:10:00.700Z,4.80
2019-02-19T01:12:41.366Z,4.70
2019-02-19T01:15:25.815Z,4.70
2019-02-19T01:18:00.757Z,4.70
2019-02-19T01:20:37.838Z,4.60
2019-02-19T01:23:14.203Z,4.60
2019-02-19T01:25:52.237Z,4.60
2019-02-19T01:28:34.027Z,4.50
2019-02-19T01:31:10.994Z,4.50
2019-02-19T01:33:50.455Z,4.40
2019-02-19T01:36:26.258Z,4.30
2019-02-19T01:39:31.869Z,4.30
2019-02-19T01:42:23.510Z,4.20
2019-02-19T01:45:01.384Z,4.20
2019-02-19T01:47:36.071Z,4.20
2019-02-19T01:50:15.797Z,4.10
2019-02-19T01:52:53.370Z,4.00
2019-02-19T01:55:32.991Z,4.00
2019-02-19T01:58:11.354Z,3.90
2019-02-19T02:00:56.783Z,3.90
2019-02-19T02:03:37.364Z,3.90
2019-02-19T02:09:12.140Z,4.00
2019-02-19T02:11:50.559Z,4.00
2019-02-19T02:14:29.173Z,3.90
2019-02-19T02:17:13.714Z,3.90
2019-02-19T02:19:49.844Z,3.80
2019-02-19T02:22:31.502Z,3.80
2019-02-19T02:25:10.973Z,3.80
2019-02-19T02:27:47.532Z,3.70
2019-02-19T02:30:25.717Z,3.70
2019-02-19T02:33:06.736Z,3.70
2019-02-19T02:35:45.225Z,3.70
2019-02-19T02:38:19.451Z,3.70
2019-02-19T02:40:57.241Z,3.70
2019-02-19T02:43:34.992Z,3.70
2019-02-19T02:46:14.653Z,3.70
2019-02-19T02:48:52.778Z,3.70
2019-02-19T02:51:28.488Z,3.70
2019-02-19T02:54:02.471Z,3.80
2019-02-19T02:56:43.269Z,3.70
2019-02-19T02:59:28.317Z,3.70
2019-02-19T03:02:05.939Z,3.70
2019-02-19T03:04:48.014Z,3.80
2019-02-19T03:07:40.665Z,3.80
2019-02-19T03:10:22.683Z,3.80
2019-02-19T03:12:57.401Z,3.70
2019-02-19T03:15:48.944Z,3.70
2019-02-19T03:18:33.216Z,3.70
2019-02-19T03:21:13.293Z,3.70
2019-02-19T03:23:56.672Z,3.70
2019-02-19T03:26:35.409Z,3.80
2019-02-19T03:29:15.638Z,3.80
2019-02-19T03:31:51.800Z,3.70
2019-02-19T03:34:30.901Z,3.70
2019-02-19T03:37:10.578Z,3.70
2019-02-19T03:39:58.920Z,3.70
2019-02-19T03:42:51.570Z,3.70
2019-02-19T03:45:27.854Z,3.70
2019-02-19T03:48:11.185Z,3.70
2019-02-19T03:50:48.975Z,3.60
2019-02-19T03:53:27.028Z,3.60
2019-02-19T03:56:02.603Z,3.60
2019-02-19T03:58:54.749Z,3.50
2019-02-19T04:01:36.550Z,3.50
2019-02-19T04:04:17.157Z,3.50
2019-02-19T04:06:58.502Z,3.50
2019-02-19T04:09:39.597Z,3.40
2019-02-19T04:12:18.971Z,3.30
2019-02-19T04:14:56.082Z,3.30
2019-02-19T04:17:38.543Z,3.30
2019-02-19T04:20:21.984Z,3.30
2019-02-19T04:22:58.704Z,3.30
2019-02-19T04:25:36.522Z,3.20
2019-02-19T04:28:12.984Z,3.20
2019-02-19T04:30:50.990Z,3.20
2019-02-19T04:33:28.078Z,3.30
2019-02-19T04:36:04.878Z,3.20
2019-02-19T04:38:41.521Z,3.30
2019-02-19T04:41:17.970Z,3.40
2019-02-19T04:43:55.584Z,3.40
2019-02-19T04:46:36.215Z,3.40
2019-02-19T04:49:13.366Z,3.40
2019-02-19T04:51:54.232Z,3.40
2019-02-19T04:54:32.534Z,3.40
2019-02-19T04:57:14.231Z,3.40
2019-02-19T04:59:50.359Z,3.40
2019-02-19T05:02:26.023Z,3.40
2019-02-19T05:05:00.780Z,3.40
2019-02-19T05:07:35.600Z,3.40
2019-02-19T05:10:10.133Z,3.40
2019-02-19T05:12:47.776Z,3.40
2019-02-19T05:15:23.862Z,3.40
2019-02-19T05:17:59.159Z,3.50
2019-02-19T05:20:36.513Z,3.50
2019-02-19T05:23:13.554Z,3.40
2019-02-19T05:25:58.589Z,3.50
2019-02-19T05:28:34.213Z,3.40
2019-02-19T05:31:11.865Z,3.40
2019-02-19T05:33:52.474Z,3.50
2019-02-19T05:36:30.366Z,3.50
2019-02-19T05:39:10.132Z,3.40
2019-02-19T05:41:49.516Z,3.40
2019-02-19T05:44:35.282Z,3.40
2019-02-19T05:47:14.422Z,3.40
2019-02-19T05:49:50.825Z,3.40
2019-02-19T05:52:27.868Z,3.40
2019-02-19T05:55:04.061Z,3.30
2019-02-19T05:57:39.842Z,3.40
2019-02-19T06:00:15.768Z,3.40
2019-02-19T06:02:52.761Z,3.40
2019-02-19T06:05:32.924Z,3.40
2019-02-19T06:08:10.202Z,3.40
2019-02-19T06:10:51.472Z,3.40
2019-02-19T06:13:32.165Z,3.40
2019-02-19T06:16:29.000Z,3.40
2019-02-19T06:19:03.810Z,3.30
2019-02-19T06:21:42.924Z,3.30
2019-02-19T06:24:24.565Z,3.30
2019-02-19T06:27:04.377Z,3.30
2019-02-19T06:30:06.533Z,3.30
2019-02-19T06:32:58.113Z,3.20
2019-02-19T06:35:41.115Z,3.20
2019-02-19T06:38:27.837Z,3.20
2019-02-19T06:41:08.577Z,3.10
2019-02-19T06:43:47.676Z,3.10
2019-02-19T06:46:31.458Z,3.10
2019-02-19T06:49:16.941Z,3.10
2019-02-19T06:51:53.550Z,3.10
2019-02-19T06:54:33.988Z,3.00
2019-02-19T06:57:11.095Z,3.10
2019-02-19T06:59:47.478Z,3.10
2019-02-19T07:02:43.671Z,3.10
2019-02-19T07:05:26.880Z,3.10
2019-02-19T07:08:03.865Z,3.10
2019-02-19T07:10:39.562Z,3.10
2019-02-19T07:13:14.874Z,3.10
2019-02-19T07:15:54.357Z,3.20
2019-02-19T07:18:36.421Z,3.20
2019-02-19T07:21:24.440Z,3.20
2019-02-19T07:24:04.436Z,3.20
2019-02-19T07:26:51.016Z,3.10
2019-02-19T07:29:37.896Z,3.20
2019-02-19T07:32:13.231Z,3.20
2019-02-19T07:34:50.312Z,3.20
2019-02-19T07:37:28.483Z,3.20
2019-02-19T07:40:05.172Z,3.20
2019-02-19T07:42:40.610Z,3.20
2019-02-19T07:45:17.178Z,3.20
2019-02-19T07:47:54.878Z,3.20
2019-02-19T07:50:34.994Z,3.20
2019-02-19T07:53:14.159Z,3.20
2019-02-19T07:55:54.887Z,3.20
2019-02-19T07:58:33.948Z,3.10
2019-02-19T08:01:11.242Z,3.10
2019-02-19T08:03:51.475Z,3.10
2019-02-19T08:06:27.594Z,3.10
2019-02-19T08:09:03.683Z,3.10
2019-02-19T08:11:38.435Z,3.20
2019-02-19T08:14:15.126Z,3.20
2019-02-19T08:16:52.069Z,3.20
2019-02-19T08:19:34.248Z,3.20
2019-02-19T08:22:10.429Z,3.20
2019-02-19T08:24:47.962Z,3.20
2019-02-19T08:27:23.515Z,3.20
2019-02-19T08:29:59.126Z,3.30
2019-02-19T08:32:35.399Z,3.20
2019-02-19T08:35:10.939Z,3.20
2019-02-19T08:37:58.375Z,3.20
2019-02-19T08:40:37.799Z,3.20
2019-02-19T08:43:16.275Z,3.20
2019-02-19T08:45:51.365Z,3.10
2019-02-19T08:48:30.380Z,3.00
2019-02-19T08:51:05.749Z,3.00
2019-02-19T08:53:44.763Z,3.00
2019-02-19T08:56:20.829Z,3.00
2019-02-19T08:58:56.869Z,3.00
2019-02-19T09:01:34.478Z,3.00
2019-02-19T09:04:13.099Z,3.00
2019-02-19T09:06:48.610Z,3.00
2019-02-19T09:09:26.569Z,3.00
2019-02-19T09:12:05.577Z,3.10
2019-02-19T09:14:46.401Z,3.10
2019-02-19T09:17:21.350Z,3.10
2019-02-19T09:19:56.257Z,3.10
2019-02-19T09:22:31.345Z,3.20
2019-02-19T09:25:09.559Z,3.10
2019-02-19T09:27:50.774Z,3.10
2019-02-19T09:30:39.088Z,3.10
2019-02-19T09:33:20.811Z,3.10
2019-02-19T09:35:56.136Z,3.00
2019-02-19T09:38:37.056Z,3.00
2019-02-19T09:41:27.546Z,2.90
2019-02-19T09:44:04.090Z,3.00
2019-02-19T09:46:46.540Z,3.00
2019-02-19T09:49:53.902Z,3.10
2019-02-19T09:52:32.615Z,3.20
2019-02-19T09:55:13.207Z,3.20
2019-02-19T09:57:53.550Z,3.20
2019-02-19T10:00:30.278Z,3.30
2019-02-19T10:03:07.753Z,3.30
2019-02-19T10:05:48.101Z,3.20
2019-02-19T10:08:23.743Z,3.20
2019-02-19T10:11:02.519Z,3.20
2019-02-19T10:13:50.201Z,3.20
2019-02-19T10:16:26.865Z,3.20
2019-02-19T10:19:03.877Z,3.20
2019-02-19T10:21:39.141Z,3.20
2019-02-19T10:24:15.382Z,3.20
2019-02-19T10:26:52.104Z,3.20
2019-02-19T10:29:28.242Z,3.20
2019-02-19T10:32:05.973Z,3.10
2019-02-19T10:34:50.111Z,3.10
2019-02-19T10:37:26.083Z,3.10
2019-02-19T10:40:02.829Z,3.10
2019-02-19T10:42:38.102Z,3.10
2019-02-19T10:45:14.920Z,3.10
2019-02-19T10:47:51.888Z,3.10
2019-02-19T10:50:29.956Z,3.10
2019-02-19T10:53:04.294Z,3.00
2019-02-19T10:55:39.155Z,3.00
2019-02-19T10:58:22.500Z,3.00
2019-02-19T11:00:53.295Z,3.00
2019-02-19T11:03:29.645Z,2.90
2019-02-19T11:06:06.397Z,2.90
2019-02-19T11:08:47.950Z,2.90
2019-02-19T11:11:27.011Z,2.90
2019-02-19T11:14:03.694Z,2.90
2019-02-19T11:16:45.730Z,2.90
2019-02-19T11:19:56.124Z,2.90
2019-02-19T11:22:38.438Z,2.90
2019-02-19T11:25:36.393Z,2.90
2019-02-19T11:28:15.706Z,2.90
2019-02-19T11:30:55.627Z,2.90
2019-02-19T11:33:38.029Z,2.90
2019-02-19T11:36:13.477Z,2.90
2019-02-19T11:38:55.111Z,2.90
2019-02-19T11:41:37.681Z,2.90
2019-02-19T11:44:17.618Z,2.90
2019-02-19T11:46:59.371Z,3.00
2019-02-19T11:49:36.573Z,3.00
2019-02-19T11:52:11.773Z,3.00
2019-02-19T11:54:49.499Z,3.00
2019-02-19T11:57:26.122Z,3.00
2019-02-19T12:00:06.733Z,3.00
2019-02-19T12:02:43.600Z,3.00
2019-02-19T12:05:19.236Z,3.00
2019-02-19T12:07:54.613Z,3.00
2019-02-19T12:10:32.881Z,3.00
2019-02-19T12:13:07.560Z,3.00
2019-02-19T12:15:46.767Z,3.00
2019-02-19T12:18:23.480Z,3.10
2019-02-19T12:20:58.640Z,3.00
2019-02-19T12:23:34.083Z,3.10
2019-02-19T12:26:12.729Z,3.00
2019-02-19T12:28:50.977Z,3.10
2019-02-19T12:31:28.905Z,3.10
2019-02-19T12:34:03.920Z,3.10
2019-02-19T12:36:38.788Z,3.10
2019-02-19T12:39:19.084Z,3.10
2019-02-19T12:41:53.819Z,3.00
2019-02-19T12:44:32.800Z,3.00
2019-02-19T12:47:12.866Z,3.00
2019-02-19T12:49:48.192Z,3.10
2019-02-19T12:52:23.266Z,3.10
2019-02-19T12:54:58.079Z,3.10
2019-02-19T12:57:33.006Z,3.00
2019-02-19T13:00:11.379Z,2.90
2019-02-19T13:02:46.821Z,2.90
2019-02-19T13:05:27.432Z,2.90
2019-02-19T13:08:05.710Z,2.90
2019-02-19T13:10:43.662Z,2.90
2019-02-19T13:13:21.986Z,2.90
2019-02-19T13:15:58.246Z,2.90
2019-02-19T13:18:37.944Z,2.90
2019-02-19T13:21:14.769Z,2.90
2019-02-19T13:23:50.590Z,2.90
2019-02-19T13:26:29.072Z,3.00
2019-02-19T13:29:04.340Z,3.00
2019-02-19T13:31:42.300Z,3.00
2019-02-19T13:34:22.510Z,3.00
2019-02-19T13:36:57.309Z,2.90
2019-02-19T13:39:43.519Z,2.90
2019-02-19T13:42:19.217Z,2.90
2019-02-19T13:44:58.873Z,2.90
2019-02-19T13:47:34.107Z,2.80
2019-02-19T13:50:11.705Z,2.80
2019-02-19T13:53:07.116Z,2.80
2019-02-19T13:55:52.310Z,2.80
2019-02-19T13:58:29.368Z,2.80
2019-02-19T14:01:17.861Z,2.80
2019-02-19T14:03:53.632Z,2.70
2019-02-19T14:06:35.656Z,2.80
2019-02-19T14:09:11.543Z,2.70
2019-02-19T14:11:53.988Z,2.70
2019-02-19T14:14:41.701Z,2.70
2019-02-19T14:17:22.889Z,2.70
2019-02-19T14:20:17.523Z,2.70
2019-02-19T14:23:19.158Z,2.70
2019-02-19T14:26:10.821Z,2.60
2019-02-19T14:29:06.202Z,2.60
2019-02-19T14:32:01.966Z,2.60
2019-02-19T14:38:20.340Z,2.60
2019-02-19T14:41:29.692Z,2.50
2019-02-19T14:44:26.873Z,2.50
2019-02-19T14:48:08.361Z,2.60
2019-02-19T14:51:02.583Z,2.60
2019-02-19T14:54:00.388Z,2.60
2019-02-19T14:57:00.363Z,2.60
2019-02-19T15:00:06.842Z,2.60
2019-02-19T15:03:07.386Z,2.60
2019-02-19T15:06:17.154Z,2.70
2019-02-19T15:09:24.740Z,2.70
2019-02-19T15:12:16.170Z,2.70
2019-02-19T15:15:12.207Z,2.70
2019-02-19T15:18:11.191Z,2.80
2019-02-19T15:21:04.144Z,2.80
2019-02-19T15:23:58.879Z,2.70
2019-02-19T15:26:59.082Z,2.70
2019-02-19T15:30:04.365Z,2.60
2019-02-19T15:32:54.628Z,2.60
2019-02-19T15:35:45.042Z,2.60
2019-02-19T15:38:36.855Z,2.60
2019-02-19T15:41:40.447Z,2.60
2019-02-19T15:44:53.779Z,2.60
2019-02-19T15:47:51.926Z,2.50
2019-02-19T15:50:45.610Z,2.60
2019-02-19T15:53:38.075Z,2.60
2019-02-19T15:56:43.630Z,2.60
2019-02-19T15:59:48.562Z,2.60
2019-02-19T16:02:44.461Z,2.60
2019-02-19T16:05:48.634Z,2.60
2019-02-19T16:08:38.773Z,2.70
2019-02-19T16:11:38.820Z,2.70
2019-02-19T16:14:36.856Z,2.70
2019-02-19T16:17:38.383Z,2.80
2019-02-19T16:20:35.194Z,2.90
2019-02-19T16:23:43.589Z,3.00
2019-02-19T16:26:40.769Z,3.00
2019-02-19T16:29:50.604Z,3.20
2019-02-19T16:33:05.890Z,3.20
2019-02-19T16:36:06.861Z,3.20
2019-02-19T16:39:09.019Z,3.20
2019-02-19T16:41:55.197Z,3.10
2019-02-19T16:44:48.381Z,3.10
2019-02-19T16:47:46.379Z,3.10
2019-02-19T16:50:42.372Z,3.20
2019-02-19T16:53:43.041Z,3.20
2019-02-19T16:56:35.448Z,3.30
2019-02-19T16:59:38.700Z,3.30
2019-02-19T17:02:38.784Z,3.30
2019-02-19T17:05:36.138Z,3.30
2019-02-19T17:08:54.343Z,3.50
2019-02-19T17:12:09.557Z,3.60
2019-02-19T17:15:13.069Z,3.60
2019-02-19T17:18:32.740Z,3.60
2019-02-19T17:25:09.116Z,3.80
2019-02-19T17:28:06.973Z,3.80
2019-02-19T17:30:58.632Z,3.70
2019-02-19T17:33:50.780Z,3.70
2019-02-19T17:36:54.542Z,3.80
2019-02-19T17:39:47.643Z,3.70
2019-02-19T17:42:42.334Z,3.60
2019-02-19T17:45:47.714Z,3.70
2019-02-19T17:48:48.696Z,3.70
2019-02-19T17:51:46.022Z,3.80
2019-02-19T17:54:38.071Z,3.80
2019-02-19T17:57:33.877Z,3.90
2019-02-19T18:00:27.691Z,3.90
2019-02-19T18:03:32.447Z,3.90
2019-02-19T18:06:35.347Z,3.80
2019-02-19T18:09:29.544Z,3.90
2019-02-19T18:12:23.296Z,4.00
2019-02-19T18:15:16.556Z,4.00
2019-02-19T18:18:17.187Z,4.10
2019-02-19T18:20:52.768Z,4.10
2019-02-19T18:23:33.690Z,4.20
2019-02-19T18:26:12.427Z,4.20
2019-02-19T18:28:53.013Z,4.20
2019-02-19T18:31:52.343Z,4.20
2019-02-19T18:34:32.071Z,4.20
2019-02-19T18:37:07.398Z,4.30
2019-02-19T18:39:42.927Z,4.30
2019-02-19T18:42:20.852Z,4.40
2019-02-19T18:44:59.093Z,4.50
2019-02-19T18:47:42.377Z,4.50
2019-02-19T18:50:17.978Z,4.50
2019-02-19T18:52:55.100Z,4.60
2019-02-19T18:55:33.018Z,4.70
2019-02-19T18:58:11.776Z,4.80
2019-02-19T19:00:47.766Z,4.90
2019-02-19T19:03:26.841Z,4.80
2019-02-19T19:06:10.013Z,4.90
2019-02-19T19:08:49.591Z,5.00
2019-02-19T19:11:26.012Z,5.20
2019-02-19T19:14:01.006Z,5.40
2019-02-19T19:16:36.908Z,5.10
2019-02-19T19:19:14.947Z,5.10
2019-02-19T19:21:51.160Z,5.20
2019-02-19T19:24:31.183Z,5.20
2019-02-19T19:27:06.833Z,4.90
2019-02-19T19:29:41.558Z,4.80
2019-02-19T19:32:17.127Z,4.80
2019-02-19T19:34:59.721Z,5.00
2019-02-19T19:37:47.601Z,4.80
2019-02-19T19:40:37.602Z,4.90
2019-02-19T19:43:14.045Z,4.80
2019-02-19T19:45:49.255Z,4.90
2019-02-19T19:48:26.804Z,5.00
2019-02-19T19:51:01.233Z,4.80
2019-02-19T19:53:40.631Z,4.70
2019-02-19T19:56:15.131Z,4.80
2019-02-19T19:58:53.463Z,4.60
2019-02-19T20:01:30.291Z,4.50
2019-02-19T20:04:06.323Z,4.40
2019-02-19T20:06:41.078Z,4.40
2019-02-19T20:09:22.951Z,4.40
2019-02-19T20:12:10.069Z,4.40
2019-02-19T20:14:48.879Z,4.50
2019-02-19T20:17:25.833Z,4.40
2019-02-19T20:20:03.646Z,4.50
2019-02-19T20:22:45.530Z,4.40
2019-02-19T20:25:20.976Z,4.40
2019-02-19T20:27:59.948Z,4.30
2019-02-19T20:30:35.851Z,4.30
2019-02-19T20:33:13.788Z,4.30
2019-02-19T20:36:00.847Z,4.30
2019-02-19T20:38:39.482Z,4.20
2019-02-19T20:41:18.025Z,4.30
2019-02-19T20:44:00.218Z,4.20
2019-02-19T20:46:38.815Z,4.20
2019-02-19T20:49:15.845Z,4.20
2019-02-19T20:51:53.408Z,4.20
2019-02-19T20:54:29.090Z,4.20
2019-02-19T20:57:04.384Z,4.20
2019-02-19T20:59:46.450Z,4.10
2019-02-19T21:02:28.833Z,4.10
2019-02-19T21:05:06.784Z,4.10
2019-02-19T21:07:45.118Z,4.10
2019-02-19T21:10:35.213Z,4.10
2019-02-19T21:13:16.060Z,4.00
2019-02-19T21:15:55.487Z,4.00
2019-02-19T21:18:36.872Z,4.00
2019-02-19T21:21:13.644Z,4.00
2019-02-19T21:23:50.317Z,4.10
2019-02-19T21:26:32.054Z,4.10
2019-02-19T21:29:08.490Z,4.20
2019-02-19T21:31:45.565Z,4.20
2019-02-19T21:34:23.934Z,4.40
2019-02-19T21:37:02.590Z,4.40
2019-02-19T21:39:44.666Z,4.40
2019-02-19T21:42:23.266Z,4.30
2019-02-19T21:44:58.571Z,4.40
2019-02-19T21:47:37.532Z,4.40
2019-02-19T21:50:21.741Z,4.40
2019-02-19T21:53:00.306Z,4.50
2019-02-19T21:55:35.989Z,4.40
2019-02-19T21:58:21.652Z,4.40
2019-02-19T22:00:56.641Z,4.50
2019-02-19T22:03:33.487Z,4.40
2019-02-19T22:06:33.175Z,4.40
2019-02-19T22:09:28.893Z,4.50
2019-02-19T22:12:17.865Z,4.50
2019-02-19T22:14:56.513Z,4.60
2019-02-19T22:17:36.682Z,4.50
2019-02-19T22:20:57.075Z,4.40
2019-02-19T22:23:39.708Z,4.30
2019-02-19T22:26:17.793Z,4.30
2019-02-19T22:28:54.334Z,4.30
2019-02-19T22:31:33.311Z,4.30
2019-02-19T22:34:09.114Z,4.30
2019-02-19T22:36:50.710Z,4.30
2019-02-19T22:39:32.186Z,4.40
2019-02-19T22:42:10.951Z,4.40
2019-02-19T22:44:51.794Z,4.50
2019-02-19T22:47:34.437Z,4.50
2019-02-19T22:50:25.190Z,4.50
2019-02-19T22:53:01.881Z,4.40
2019-02-19T22:56:07.392Z,4.30
2019-02-19T22:58:58.466Z,4.30
2019-02-19T23:01:36.646Z,4.30
2019-02-19T23:04:14.451Z,4.20
2019-02-19T23:09:58.978Z,4.20
2019-02-19T23:12:41.752Z,4.30
2019-02-19T23:15:27.549Z,4.30
2019-02-19T23:18:18.142Z,4.40
2019-02-19T23:21:09.751Z,4.40
2019-02-19T23:23:53.960Z,4.50
2019-02-19T23:26:43.899Z,4.50
2019-02-19T23:29:25.571Z,4.50
2019-02-19T23:32:19.145Z,4.50
2019-02-19T23:35:25.897Z,4.40
2019-02-19T23:38:06.489Z,4.40
2019-02-19T23:40:54.663Z,4.40
2019-02-19T23:43:37.213Z,4.40
2019-02-19T23:46:21.320Z,4.50
2019-02-19T23:48:55.791Z,4.60
2019-02-19T23:51:31.758Z,4.60
2019-02-19T23:54:14.464Z,4.50
2019-02-19T23:56:50.431Z,4.60
2019-02-19T23:59:27.813Z,4.60
